sensor_id;sensor_type;location;lat;lon;timestamp;temperature;humidity
71177;DHT22;58877;51.992;4.504;2022-11-12T00:00:40;9.14;84.28
71177;DHT22;58877;51.992;4.504;2022-11-12T00:03:07;9.20;84.58
71177;DHT22;58877;51.992;4.504;2022-11-12T00:05:33;9.27;84.68
71177;DHT22;58877;51.992;4.504;2022-11-12T00:07:59;9.42;84.71
71177;DHT22;58877;51.992;4.504;2022-11-12T00:10:27;9.54;84.60
71177;DHT22;58877;51.992;4.504;2022-11-12T00:12:53;9.59;84.70
71177;DHT22;58877;51.992;4.504;2022-11-12T00:15:20;9.66;84.75
71177;DHT22;58877;51.992;4.504;2022-11-12T00:17:46;9.71;84.74
71177;DHT22;58877;51.992;4.504;2022-11-12T00:20:14;9.71;84.83
71177;DHT22;58877;51.992;4.504;2022-11-12T00:22:40;9.78;84.92
71177;DHT22;58877;51.992;4.504;2022-11-12T00:25:06;9.86;84.76
71177;DHT22;58877;51.992;4.504;2022-11-12T00:27:32;9.96;84.66
71177;DHT22;58877;51.992;4.504;2022-11-12T00:29:58;10.00;84.59
71177;DHT22;58877;51.992;4.504;2022-11-12T00:32:24;10.06;84.56
71177;DHT22;58877;51.992;4.504;2022-11-12T00:34:49;10.20;83.83
71177;DHT22;58877;51.992;4.504;2022-11-12T00:37:16;10.20;84.34
71177;DHT22;58877;51.992;4.504;2022-11-12T00:39:43;10.24;84.64
71177;DHT22;58877;51.992;4.504;2022-11-12T00:42:09;10.34;84.60
71177;DHT22;58877;51.992;4.504;2022-11-12T00:44:35;10.43;84.52
71177;DHT22;58877;51.992;4.504;2022-11-12T00:47:01;10.43;84.54
71177;DHT22;58877;51.992;4.504;2022-11-12T00:49:29;10.41;84.30
71177;DHT22;58877;51.992;4.504;2022-11-12T00:51:55;10.44;84.14
71177;DHT22;58877;51.992;4.504;2022-11-12T00:54:20;10.49;83.99
71177;DHT22;58877;51.992;4.504;2022-11-12T00:56:47;10.44;84.27
71177;DHT22;58877;51.992;4.504;2022-11-12T00:59:13;10.44;84.56
71177;DHT22;58877;51.992;4.504;2022-11-12T01:01:40;10.46;84.36
71177;DHT22;58877;51.992;4.504;2022-11-12T01:04:05;10.43;84.35
71177;DHT22;58877;51.992;4.504;2022-11-12T01:06:31;10.50;84.60
71177;DHT22;58877;51.992;4.504;2022-11-12T01:08:57;10.60;84.44
71177;DHT22;58877;51.992;4.504;2022-11-12T01:11:26;10.64;84.22
71177;DHT22;58877;51.992;4.504;2022-11-12T01:13:58;10.63;84.20
71177;DHT22;58877;51.992;4.504;2022-11-12T01:16:27;10.63;84.48
71177;DHT22;58877;51.992;4.504;2022-11-12T01:18:56;10.70;84.68
71177;DHT22;58877;51.992;4.504;2022-11-12T01:21:25;10.80;84.72
71177;DHT22;58877;51.992;4.504;2022-11-12T01:23:51;10.80;84.63
71177;DHT22;58877;51.992;4.504;2022-11-12T01:26:25;10.88;84.74
71177;DHT22;58877;51.992;4.504;2022-11-12T01:28:53;10.95;84.57
71177;DHT22;58877;51.992;4.504;2022-11-12T01:33:47;11.01;84.41
71177;DHT22;58877;51.992;4.504;2022-11-12T01:36:16;11.02;84.50
71177;DHT22;58877;51.992;4.504;2022-11-12T01:38:43;11.05;84.48
71177;DHT22;58877;51.992;4.504;2022-11-12T01:41:12;11.07;84.44
71177;DHT22;58877;51.992;4.504;2022-11-12T01:43:38;11.11;84.30
71177;DHT22;58877;51.992;4.504;2022-11-12T01:46:19;11.10;84.36
71177;DHT22;58877;51.992;4.504;2022-11-12T01:48:52;11.10;84.29
71177;DHT22;58877;51.992;4.504;2022-11-12T01:51:23;11.14;84.28
71177;DHT22;58877;51.992;4.504;2022-11-12T01:53:57;11.15;84.26
71177;DHT22;58877;51.992;4.504;2022-11-12T01:56:29;11.10;84.30
71177;DHT22;58877;51.992;4.504;2022-11-12T01:59:16;11.10;84.37
71177;DHT22;58877;51.992;4.504;2022-11-12T02:01:43;11.16;84.23
71177;DHT22;58877;51.992;4.504;2022-11-12T02:06:50;11.14;84.37
71177;DHT22;58877;51.992;4.504;2022-11-12T02:09:16;11.16;84.38
71177;DHT22;58877;51.992;4.504;2022-11-12T02:11:43;11.14;84.22
71177;DHT22;58877;51.992;4.504;2022-11-12T02:14:09;11.11;84.34
71177;DHT22;58877;51.992;4.504;2022-11-12T02:16:41;11.11;84.40
71177;DHT22;58877;51.992;4.504;2022-11-12T02:19:12;11.12;84.39
71177;DHT22;58877;51.992;4.504;2022-11-12T02:21:44;11.08;84.48
71177;DHT22;58877;51.992;4.504;2022-11-12T02:26:45;11.10;84.49
71177;DHT22;58877;51.992;4.504;2022-11-12T02:29:12;11.10;84.54
71177;DHT22;58877;51.992;4.504;2022-11-12T02:31:38;11.15;84.59
71177;DHT22;58877;51.992;4.504;2022-11-12T02:34:04;11.16;84.35
71177;DHT22;58877;51.992;4.504;2022-11-12T02:36:30;11.15;84.34
71177;DHT22;58877;51.992;4.504;2022-11-12T02:38:56;11.11;84.57
71177;DHT22;58877;51.992;4.504;2022-11-12T02:41:25;11.11;84.56
71177;DHT22;58877;51.992;4.504;2022-11-12T02:43:51;11.11;84.63
71177;DHT22;58877;51.992;4.504;2022-11-12T02:46:17;11.10;84.76
71177;DHT22;58877;51.992;4.504;2022-11-12T02:48:43;11.10;84.78
71177;DHT22;58877;51.992;4.504;2022-11-12T02:51:09;11.05;84.94
71177;DHT22;58877;51.992;4.504;2022-11-12T02:53:37;11.04;85.05
71177;DHT22;58877;51.992;4.504;2022-11-12T02:56:02;11.02;84.98
71177;DHT22;58877;51.992;4.504;2022-11-12T02:58:28;10.91;85.48
71177;DHT22;58877;51.992;4.504;2022-11-12T03:00:56;10.98;85.25
71177;DHT22;58877;51.992;4.504;2022-11-12T03:03:22;10.92;85.49
71177;DHT22;58877;51.992;4.504;2022-11-12T03:05:58;10.87;85.84
71177;DHT22;58877;51.992;4.504;2022-11-12T03:08:24;10.91;85.75
71177;DHT22;58877;51.992;4.504;2022-11-12T03:10:50;10.92;85.72
71177;DHT22;58877;51.992;4.504;2022-11-12T03:13:17;10.97;85.70
71177;DHT22;58877;51.992;4.504;2022-11-12T03:15:42;11.00;85.55
71177;DHT22;58877;51.992;4.504;2022-11-12T03:18:08;11.02;85.55
71177;DHT22;58877;51.992;4.504;2022-11-12T03:20:34;11.02;85.47
71177;DHT22;58877;51.992;4.504;2022-11-12T03:23:05;11.04;85.31
71177;DHT22;58877;51.992;4.504;2022-11-12T03:25:32;11.07;84.93
71177;DHT22;58877;51.992;4.504;2022-11-12T03:30:27;11.10;85.11
71177;DHT22;58877;51.992;4.504;2022-11-12T03:32:53;11.00;85.22
71177;DHT22;58877;51.992;4.504;2022-11-12T03:35:19;11.02;85.34
71177;DHT22;58877;51.992;4.504;2022-11-12T03:37:44;11.04;85.36
71177;DHT22;58877;51.992;4.504;2022-11-12T03:40:10;11.07;85.31
71177;DHT22;58877;51.992;4.504;2022-11-12T03:42:35;11.10;85.19
71177;DHT22;58877;51.992;4.504;2022-11-12T03:45:01;11.04;85.14
71177;DHT22;58877;51.992;4.504;2022-11-12T03:47:27;10.94;85.12
71177;DHT22;58877;51.992;4.504;2022-11-12T03:49:52;10.85;85.42
71177;DHT22;58877;51.992;4.504;2022-11-12T03:52:18;10.84;85.53
71177;DHT22;58877;51.992;4.504;2022-11-12T03:54:43;10.84;85.56
71177;DHT22;58877;51.992;4.504;2022-11-12T03:57:09;10.84;85.51
71177;DHT22;58877;51.992;4.504;2022-11-12T03:59:34;10.81;85.32
71177;DHT22;58877;51.992;4.504;2022-11-12T04:02:00;10.80;85.06
71177;DHT22;58877;51.992;4.504;2022-11-12T04:04:25;10.70;84.94
71177;DHT22;58877;51.992;4.504;2022-11-12T04:07:14;10.57;84.93
71177;DHT22;58877;51.992;4.504;2022-11-12T04:09:58;10.43;85.09
71177;DHT22;58877;51.992;4.504;2022-11-12T04:12:23;10.32;85.43
71177;DHT22;58877;51.992;4.504;2022-11-12T04:15:07;10.27;85.62
71177;DHT22;58877;51.992;4.504;2022-11-12T04:17:33;10.23;85.67
71177;DHT22;58877;51.992;4.504;2022-11-12T04:20:17;10.19;85.68
71177;DHT22;58877;51.992;4.504;2022-11-12T04:23:01;10.13;85.66
71177;DHT22;58877;51.992;4.504;2022-11-12T04:25:27;10.07;85.62
71177;DHT22;58877;51.992;4.504;2022-11-12T04:28:11;10.02;85.62
71177;DHT22;58877;51.992;4.504;2022-11-12T04:30:36;9.97;85.65
71177;DHT22;58877;51.992;4.504;2022-11-12T04:33:02;9.95;85.83
71177;DHT22;58877;51.992;4.504;2022-11-12T04:35:27;9.92;85.80
71177;DHT22;58877;51.992;4.504;2022-11-12T04:37:55;9.87;85.80
71177;DHT22;58877;51.992;4.504;2022-11-12T04:40:22;9.82;85.85
71177;DHT22;58877;51.992;4.504;2022-11-12T04:43:12;9.76;85.91
71177;DHT22;58877;51.992;4.504;2022-11-12T04:45:57;9.68;86.06
71177;DHT22;58877;51.992;4.504;2022-11-12T04:48:24;9.66;86.19
71177;DHT22;58877;51.992;4.504;2022-11-12T04:50:58;9.68;86.22
71177;DHT22;58877;51.992;4.504;2022-11-12T04:53:26;9.69;86.14
71177;DHT22;58877;51.992;4.504;2022-11-12T04:55:53;9.68;86.08
71177;DHT22;58877;51.992;4.504;2022-11-12T04:58:20;9.69;86.16
71177;DHT22;58877;51.992;4.504;2022-11-12T05:00:48;9.68;86.04
71177;DHT22;58877;51.992;4.504;2022-11-12T05:03:14;9.65;85.99
71177;DHT22;58877;51.992;4.504;2022-11-12T05:05:40;9.63;86.03
71177;DHT22;58877;51.992;4.504;2022-11-12T05:08:06;9.55;86.05
71177;DHT22;58877;51.992;4.504;2022-11-12T05:10:32;9.56;86.14
71177;DHT22;58877;51.992;4.504;2022-11-12T05:12:57;9.58;86.15
71177;DHT22;58877;51.992;4.504;2022-11-12T05:15:23;9.55;86.09
71177;DHT22;58877;51.992;4.504;2022-11-12T05:17:49;9.55;86.14
71177;DHT22;58877;51.992;4.504;2022-11-12T05:20:15;9.54;86.05
71177;DHT22;58877;51.992;4.504;2022-11-12T05:22:41;9.48;85.88
71177;DHT22;58877;51.992;4.504;2022-11-12T05:25:08;9.41;85.81
71177;DHT22;58877;51.992;4.504;2022-11-12T05:27:34;9.34;85.82
71177;DHT22;58877;51.992;4.504;2022-11-12T05:29:59;9.25;85.74
71177;DHT22;58877;51.992;4.504;2022-11-12T05:32:25;9.24;85.74
71177;DHT22;58877;51.992;4.504;2022-11-12T05:34:54;9.17;85.58
71177;DHT22;58877;51.992;4.504;2022-11-12T05:37:20;9.15;85.51
71177;DHT22;58877;51.992;4.504;2022-11-12T05:39:45;9.11;85.52
71177;DHT22;58877;51.992;4.504;2022-11-12T05:42:11;9.03;85.52
71177;DHT22;58877;51.992;4.504;2022-11-12T05:44:36;8.90;85.62
71177;DHT22;58877;51.992;4.504;2022-11-12T05:47:05;8.87;85.56
71177;DHT22;58877;51.992;4.504;2022-11-12T05:49:30;8.81;85.58
71177;DHT22;58877;51.992;4.504;2022-11-12T05:51:56;8.79;85.53
71177;DHT22;58877;51.992;4.504;2022-11-12T05:54:21;8.74;85.45
71177;DHT22;58877;51.992;4.504;2022-11-12T05:56:50;8.67;85.49
71177;DHT22;58877;51.992;4.504;2022-11-12T05:59:17;8.57;85.55
71177;DHT22;58877;51.992;4.504;2022-11-12T06:01:43;8.54;85.44
71177;DHT22;58877;51.992;4.504;2022-11-12T06:04:10;8.50;85.62
71177;DHT22;58877;51.992;4.504;2022-11-12T06:06:36;8.42;85.47
71177;DHT22;58877;51.992;4.504;2022-11-12T06:09:03;8.37;85.61
71177;DHT22;58877;51.992;4.504;2022-11-12T06:11:28;8.36;85.56
71177;DHT22;58877;51.992;4.504;2022-11-12T06:13:54;8.30;85.44
71177;DHT22;58877;51.992;4.504;2022-11-12T06:16:19;8.29;85.44
71177;DHT22;58877;51.992;4.504;2022-11-12T06:18:45;8.29;85.33
71177;DHT22;58877;51.992;4.504;2022-11-12T06:21:11;8.23;85.16
71177;DHT22;58877;51.992;4.504;2022-11-12T06:23:57;8.15;84.96
71177;DHT22;58877;51.992;4.504;2022-11-12T06:26:25;8.10;85.01
71177;DHT22;58877;51.992;4.504;2022-11-12T06:28:51;8.05;85.05
71177;DHT22;58877;51.992;4.504;2022-11-12T06:31:18;8.01;85.27
71177;DHT22;58877;51.992;4.504;2022-11-12T06:33:44;7.91;85.39
71177;DHT22;58877;51.992;4.504;2022-11-12T06:36:21;7.88;85.43
71177;DHT22;58877;51.992;4.504;2022-11-12T06:38:47;7.86;85.37
71177;DHT22;58877;51.992;4.504;2022-11-12T06:41:14;7.81;85.37
71177;DHT22;58877;51.992;4.504;2022-11-12T06:43:43;7.77;85.28
71177;DHT22;58877;51.992;4.504;2022-11-12T06:46:14;7.75;85.24
71177;DHT22;58877;51.992;4.504;2022-11-12T06:48:40;7.75;85.21
71177;DHT22;58877;51.992;4.504;2022-11-12T06:51:11;7.71;85.13
71177;DHT22;58877;51.992;4.504;2022-11-12T06:53:55;7.65;85.31
71177;DHT22;58877;51.992;4.504;2022-11-12T06:56:20;7.65;85.46
71177;DHT22;58877;51.992;4.504;2022-11-12T06:58:55;7.58;85.60
71177;DHT22;58877;51.992;4.504;2022-11-12T07:01:39;7.54;85.60
71177;DHT22;58877;51.992;4.504;2022-11-12T07:04:20;7.55;85.68
71177;DHT22;58877;51.992;4.504;2022-11-12T07:06:48;7.60;85.66
71177;DHT22;58877;51.992;4.504;2022-11-12T07:09:14;7.55;85.67
71177;DHT22;58877;51.992;4.504;2022-11-12T07:11:40;7.57;85.57
71177;DHT22;58877;51.992;4.504;2022-11-12T07:14:06;7.55;85.56
71177;DHT22;58877;51.992;4.504;2022-11-12T07:16:32;7.57;85.44
71177;DHT22;58877;51.992;4.504;2022-11-12T07:18:58;7.58;85.24
71177;DHT22;58877;51.992;4.504;2022-11-12T07:21:24;7.60;85.18
71177;DHT22;58877;51.992;4.504;2022-11-12T07:23:49;7.58;85.24
71177;DHT22;58877;51.992;4.504;2022-11-12T07:26:21;7.55;85.17
71177;DHT22;58877;51.992;4.504;2022-11-12T07:28:55;7.57;85.29
71177;DHT22;58877;51.992;4.504;2022-11-12T07:31:22;7.62;85.31
71177;DHT22;58877;51.992;4.504;2022-11-12T07:33:48;7.67;85.30
71177;DHT22;58877;51.992;4.504;2022-11-12T07:36:17;7.68;85.36
71177;DHT22;58877;51.992;4.504;2022-11-12T07:38:44;7.72;85.40
71177;DHT22;58877;51.992;4.504;2022-11-12T07:41:18;7.74;85.32
71177;DHT22;58877;51.992;4.504;2022-11-12T07:43:46;7.78;85.24
71177;DHT22;58877;51.992;4.504;2022-11-12T07:46:16;7.81;85.14
71177;DHT22;58877;51.992;4.504;2022-11-12T07:48:42;7.86;85.23
71177;DHT22;58877;51.992;4.504;2022-11-12T07:51:20;7.92;85.35
71177;DHT22;58877;51.992;4.504;2022-11-12T07:53:46;8.03;85.41
71177;DHT22;58877;51.992;4.504;2022-11-12T07:56:18;8.16;85.32
71177;DHT22;58877;51.992;4.504;2022-11-12T07:58:44;8.29;85.28
71177;DHT22;58877;51.992;4.504;2022-11-12T08:03:47;8.49;85.04
71177;DHT22;58877;51.992;4.504;2022-11-12T08:06:12;8.56;84.89
71177;DHT22;58877;51.992;4.504;2022-11-12T08:08:38;8.63;84.91
71177;DHT22;58877;51.992;4.504;2022-11-12T08:11:04;8.66;84.84
71177;DHT22;58877;51.992;4.504;2022-11-12T08:13:29;8.76;84.98
71177;DHT22;58877;51.992;4.504;2022-11-12T08:15:58;8.81;85.01
71177;DHT22;58877;51.992;4.504;2022-11-12T08:18:24;8.91;85.02
71177;DHT22;58877;51.992;4.504;2022-11-12T08:20:50;9.03;85.04
71177;DHT22;58877;51.992;4.504;2022-11-12T08:23:16;9.14;84.94
71177;DHT22;58877;51.992;4.504;2022-11-12T08:25:41;9.21;84.96
71177;DHT22;58877;51.992;4.504;2022-11-12T08:28:07;9.31;85.00
71177;DHT22;58877;51.992;4.504;2022-11-12T08:30:34;9.38;84.94
71177;DHT22;58877;51.992;4.504;2022-11-12T08:33:02;9.49;85.04
71177;DHT22;58877;51.992;4.504;2022-11-12T08:35:29;9.54;85.02
71177;DHT22;58877;51.992;4.504;2022-11-12T08:37:58;9.65;85.08
71177;DHT22;58877;51.992;4.504;2022-11-12T08:40:25;9.78;85.04
71177;DHT22;58877;51.992;4.504;2022-11-12T08:43:03;9.90;84.96
71177;DHT22;58877;51.992;4.504;2022-11-12T08:45:31;10.00;84.81
71177;DHT22;58877;51.992;4.504;2022-11-12T08:47:59;10.12;84.78
71177;DHT22;58877;51.992;4.504;2022-11-12T08:50:25;10.20;84.74
71177;DHT22;58877;51.992;4.504;2022-11-12T08:52:50;10.29;84.77
71177;DHT22;58877;51.992;4.504;2022-11-12T08:55:16;10.43;84.58
71177;DHT22;58877;51.992;4.504;2022-11-12T08:57:43;10.53;84.56
71177;DHT22;58877;51.992;4.504;2022-11-12T09:00:10;10.59;84.47
71177;DHT22;58877;51.992;4.504;2022-11-12T09:02:36;10.65;84.15
71177;DHT22;58877;51.992;4.504;2022-11-12T09:05:02;10.74;84.33
71177;DHT22;58877;51.992;4.504;2022-11-12T09:07:28;10.82;84.23
71177;DHT22;58877;51.992;4.504;2022-11-12T09:09:54;10.94;84.14
71177;DHT22;58877;51.992;4.504;2022-11-12T09:12:19;11.04;84.02
71177;DHT22;58877;51.992;4.504;2022-11-12T09:14:45;11.16;83.92
71177;DHT22;58877;51.992;4.504;2022-11-12T09:17:11;11.25;83.64
71177;DHT22;58877;51.992;4.504;2022-11-12T09:19:37;11.34;83.69
71177;DHT22;58877;51.992;4.504;2022-11-12T09:22:03;11.42;83.35
71177;DHT22;58877;51.992;4.504;2022-11-12T09:24:29;11.55;83.39
71177;DHT22;58877;51.992;4.504;2022-11-12T09:26:54;11.62;82.86
71177;DHT22;58877;51.992;4.504;2022-11-12T09:29:20;11.65;82.69
71177;DHT22;58877;51.992;4.504;2022-11-12T09:31:46;11.75;82.71
71177;DHT22;58877;51.992;4.504;2022-11-12T09:34:11;11.85;82.47
71177;DHT22;58877;51.992;4.504;2022-11-12T09:36:37;11.94;82.39
71177;DHT22;58877;51.992;4.504;2022-11-12T09:39:03;12.09;82.16
71177;DHT22;58877;51.992;4.504;2022-11-12T09:41:36;12.14;81.53
71177;DHT22;58877;51.992;4.504;2022-11-12T09:46:44;12.34;80.86
71177;DHT22;58877;51.992;4.504;2022-11-12T09:49:26;12.45;80.47
71177;DHT22;58877;51.992;4.504;2022-11-12T09:52:02;12.63;80.66
71177;DHT22;58877;51.992;4.504;2022-11-12T09:54:34;12.74;80.24
71177;DHT22;58877;51.992;4.504;2022-11-12T09:57:01;12.87;80.14
71177;DHT22;58877;51.992;4.504;2022-11-12T09:59:30;12.95;79.96
71177;DHT22;58877;51.992;4.504;2022-11-12T10:02:26;13.11;79.58
71177;DHT22;58877;51.992;4.504;2022-11-12T10:08:10;13.35;78.21
71177;DHT22;58877;51.992;4.504;2022-11-12T10:10:48;13.42;76.73
71177;DHT22;58877;51.992;4.504;2022-11-12T10:24:34;13.62;75.78
71177;DHT22;58877;51.992;4.504;2022-11-12T10:27:10;13.79;75.90
71177;DHT22;58877;51.992;4.504;2022-11-12T10:32:16;14.11;75.33
71177;DHT22;58877;51.992;4.504;2022-11-12T10:34:47;14.24;74.65
71177;DHT22;58877;51.992;4.504;2022-11-12T10:40:25;14.38;72.95
71177;DHT22;58877;51.992;4.504;2022-11-12T10:43:03;14.41;73.29
71177;DHT22;58877;51.992;4.504;2022-11-12T10:45:29;14.60;72.43
71177;DHT22;58877;51.992;4.504;2022-11-12T10:47:56;14.63;72.25
71177;DHT22;58877;51.992;4.504;2022-11-12T10:50:35;14.76;72.02
71177;DHT22;58877;51.992;4.504;2022-11-12T10:53:09;14.84;71.43
71177;DHT22;58877;51.992;4.504;2022-11-12T10:55:57;14.86;71.39
71177;DHT22;58877;51.992;4.504;2022-11-12T10:58:23;14.98;71.34
71177;DHT22;58877;51.992;4.504;2022-11-12T11:01:04;15.12;70.99
71177;DHT22;58877;51.992;4.504;2022-11-12T11:03:52;15.19;70.60
71177;DHT22;58877;51.992;4.504;2022-11-12T11:06:23;15.29;70.57
71177;DHT22;58877;51.992;4.504;2022-11-12T11:09:14;15.49;69.97
71177;DHT22;58877;51.992;4.504;2022-11-12T11:11:51;15.54;69.47
71177;DHT22;58877;51.992;4.504;2022-11-12T11:14:34;15.59;68.73
71177;DHT22;58877;51.992;4.504;2022-11-12T11:17:03;15.66;68.27
71177;DHT22;58877;51.992;4.504;2022-11-12T11:19:41;15.77;68.36
71177;DHT22;58877;51.992;4.504;2022-11-12T11:25:19;15.91;67.37
71177;DHT22;58877;51.992;4.504;2022-11-12T11:28:03;15.94;67.26
71177;DHT22;58877;51.992;4.504;2022-11-12T11:30:38;16.03;67.36
71177;DHT22;58877;51.992;4.504;2022-11-12T11:33:17;16.05;66.86
71177;DHT22;58877;51.992;4.504;2022-11-12T11:42:25;16.13;65.69
71177;DHT22;58877;51.992;4.504;2022-11-12T11:45:15;16.21;65.44
71177;DHT22;58877;51.992;4.504;2022-11-12T11:50:40;16.31;63.70
71177;DHT22;58877;51.992;4.504;2022-11-12T11:53:24;16.29;64.14
71177;DHT22;58877;51.992;4.504;2022-11-12T12:07:40;16.61;63.28
71177;DHT22;58877;51.992;4.504;2022-11-12T12:10:24;16.64;62.95
71177;DHT22;58877;51.992;4.504;2022-11-12T12:13:09;16.61;63.13
71177;DHT22;58877;51.992;4.504;2022-11-12T12:18:52;16.71;63.96
71177;DHT22;58877;51.992;4.504;2022-11-12T12:21:23;16.66;63.30
71177;DHT22;58877;51.992;4.504;2022-11-12T12:24:14;16.64;63.76
71177;DHT22;58877;51.992;4.504;2022-11-12T12:26:45;16.69;62.95
71177;DHT22;58877;51.992;4.504;2022-11-12T12:32:13;16.76;62.72
71177;DHT22;58877;51.992;4.504;2022-11-12T12:35:01;16.79;62.81
71177;DHT22;58877;51.992;4.504;2022-11-12T12:40:55;16.80;61.75
71177;DHT22;58877;51.992;4.504;2022-11-12T12:43:45;16.83;61.87
71177;DHT22;58877;51.992;4.504;2022-11-12T12:46:16;16.82;63.00
71177;DHT22;58877;51.992;4.504;2022-11-12T12:48:47;16.79;63.76
71177;DHT22;58877;51.992;4.504;2022-11-12T12:51:16;16.73;64.49
71177;DHT22;58877;51.992;4.504;2022-11-12T12:53:42;16.75;64.41
71177;DHT22;58877;51.992;4.504;2022-11-12T13:01:27;16.72;65.19
71177;DHT22;58877;51.992;4.504;2022-11-12T13:06:26;16.80;65.69
71177;DHT22;58877;51.992;4.504;2022-11-12T13:08:59;16.78;65.61
71177;DHT22;58877;51.992;4.504;2022-11-12T13:11:49;16.83;65.71
71177;DHT22;58877;51.992;4.504;2022-11-12T13:16:59;16.86;65.83
71177;DHT22;58877;51.992;4.504;2022-11-12T13:19:38;16.89;65.68
71177;DHT22;58877;51.992;4.504;2022-11-12T13:40:35;16.42;64.88
71177;DHT22;58877;51.992;4.504;2022-11-12T13:46:10;16.41;64.12
71177;DHT22;58877;51.992;4.504;2022-11-12T13:48:49;16.40;64.24
71177;DHT22;58877;51.992;4.504;2022-11-12T13:53:59;16.49;64.59
71177;DHT22;58877;51.992;4.504;2022-11-12T13:56:31;16.52;64.48
71177;DHT22;58877;51.992;4.504;2022-11-12T13:59:19;16.55;63.78
71177;DHT22;58877;51.992;4.504;2022-11-12T14:01:47;16.52;63.63
71177;DHT22;58877;51.992;4.504;2022-11-12T14:04:17;16.58;63.60
71177;DHT22;58877;51.992;4.504;2022-11-12T14:06:56;16.56;63.77
71177;DHT22;58877;51.992;4.504;2022-11-12T14:20:36;16.56;64.08
71177;DHT22;58877;51.992;4.504;2022-11-12T14:23:23;16.58;64.28
71177;DHT22;58877;51.992;4.504;2022-11-12T14:25:53;16.59;64.31
71177;DHT22;58877;51.992;4.504;2022-11-12T14:30:52;16.64;64.24
71177;DHT22;58877;51.992;4.504;2022-11-12T14:33:20;17.33;63.19
71177;DHT22;58877;51.992;4.504;2022-11-12T14:35:48;18.47;59.95
71177;DHT22;58877;51.992;4.504;2022-11-12T14:38:34;19.31;56.53
71177;DHT22;58877;51.992;4.504;2022-11-12T14:41:10;19.74;55.09
71177;DHT22;58877;51.992;4.504;2022-11-12T14:43:45;19.98;54.09
71177;DHT22;58877;51.992;4.504;2022-11-12T14:46:23;20.21;53.50
71177;DHT22;58877;51.992;4.504;2022-11-12T14:49:03;20.55;52.49
71177;DHT22;58877;51.992;4.504;2022-11-12T14:51:41;20.70;51.94
71177;DHT22;58877;51.992;4.504;2022-11-12T14:54:17;19.81;53.46
71177;DHT22;58877;51.992;4.504;2022-11-12T14:56:49;18.70;56.32
71177;DHT22;58877;51.992;4.504;2022-11-12T14:59:16;18.02;58.58
71177;DHT22;58877;51.992;4.504;2022-11-12T15:02:02;17.50;60.33
71177;DHT22;58877;51.992;4.504;2022-11-12T15:04:43;17.09;61.81
71177;DHT22;58877;51.992;4.504;2022-11-12T15:07:57;16.69;63.27
71177;DHT22;58877;51.992;4.504;2022-11-12T15:10:45;16.42;64.39
71177;DHT22;58877;51.992;4.504;2022-11-12T15:13:17;16.24;64.98
71177;DHT22;58877;51.992;4.504;2022-11-12T15:15:55;16.08;65.67
71177;DHT22;58877;51.992;4.504;2022-11-12T15:18:33;15.94;66.26
71177;DHT22;58877;51.992;4.504;2022-11-12T15:21:24;15.74;66.83
71177;DHT22;58877;51.992;4.504;2022-11-12T15:24:19;15.54;67.43
71177;DHT22;58877;51.992;4.504;2022-11-12T15:26:53;15.46;67.78
71177;DHT22;58877;51.992;4.504;2022-11-12T15:31:57;15.23;68.60
71177;DHT22;58877;51.992;4.504;2022-11-12T15:34:30;15.15;68.94
71177;DHT22;58877;51.992;4.504;2022-11-12T15:37:01;15.05;69.20
71177;DHT22;58877;51.992;4.504;2022-11-12T15:39:28;14.93;69.61
71177;DHT22;58877;51.992;4.504;2022-11-12T15:42:03;14.85;70.00
71177;DHT22;58877;51.992;4.504;2022-11-12T15:44:33;14.75;70.51
71177;DHT22;58877;51.992;4.504;2022-11-12T15:47:07;14.64;70.84
71177;DHT22;58877;51.992;4.504;2022-11-12T15:50:15;14.57;71.23
71177;DHT22;58877;51.992;4.504;2022-11-12T15:52:41;14.44;71.32
71177;DHT22;58877;51.992;4.504;2022-11-12T15:55:08;14.35;71.68
71177;DHT22;58877;51.992;4.504;2022-11-12T15:57:48;14.28;71.80
71177;DHT22;58877;51.992;4.504;2022-11-12T16:00:28;14.18;72.05
71177;DHT22;58877;51.992;4.504;2022-11-12T16:03:11;14.06;72.39
71177;DHT22;58877;51.992;4.504;2022-11-12T16:05:37;13.97;72.66
71177;DHT22;58877;51.992;4.504;2022-11-12T16:08:03;13.96;72.78
71177;DHT22;58877;51.992;4.504;2022-11-12T16:10:28;13.93;72.82
71177;DHT22;58877;51.992;4.504;2022-11-12T16:12:57;13.84;72.93
71177;DHT22;58877;51.992;4.504;2022-11-12T16:15:23;13.77;73.10
71177;DHT22;58877;51.992;4.504;2022-11-12T16:17:51;13.73;73.28
71177;DHT22;58877;51.992;4.504;2022-11-12T16:20:26;13.65;73.39
71177;DHT22;58877;51.992;4.504;2022-11-12T16:22:52;13.59;73.49
71177;DHT22;58877;51.992;4.504;2022-11-12T16:25:19;13.50;73.53
71177;DHT22;58877;51.992;4.504;2022-11-12T16:27:45;13.46;74.16
71177;DHT22;58877;51.992;4.504;2022-11-12T16:30:31;13.43;74.11
71177;DHT22;58877;51.992;4.504;2022-11-12T16:32:58;13.34;74.10
71177;DHT22;58877;51.992;4.504;2022-11-12T16:35:25;13.26;74.36
71177;DHT22;58877;51.992;4.504;2022-11-12T16:37:53;13.18;74.47
71177;DHT22;58877;51.992;4.504;2022-11-12T16:40:24;13.08;74.70
71177;DHT22;58877;51.992;4.504;2022-11-12T16:42:50;13.06;74.77
71177;DHT22;58877;51.992;4.504;2022-11-12T16:45:19;13.02;74.91
71177;DHT22;58877;51.992;4.504;2022-11-12T16:47:47;12.96;75.13
71177;DHT22;58877;51.992;4.504;2022-11-12T16:50:17;12.87;75.20
71177;DHT22;58877;51.992;4.504;2022-11-12T16:52:43;12.83;75.44
71177;DHT22;58877;51.992;4.504;2022-11-12T16:55:09;12.77;75.67
71177;DHT22;58877;51.992;4.504;2022-11-12T16:57:35;12.67;75.77
71177;DHT22;58877;51.992;4.504;2022-11-12T17:00:02;12.60;75.93
71177;DHT22;58877;51.992;4.504;2022-11-12T17:02:28;12.53;76.03
71177;DHT22;58877;51.992;4.504;2022-11-12T17:04:54;12.61;75.96
71177;DHT22;58877;51.992;4.504;2022-11-12T17:07:19;12.64;76.03
71177;DHT22;58877;51.992;4.504;2022-11-12T17:09:45;12.58;76.43
71177;DHT22;58877;51.992;4.504;2022-11-12T17:12:10;12.48;76.49
71177;DHT22;58877;51.992;4.504;2022-11-12T17:14:36;12.36;76.27
71177;DHT22;58877;51.992;4.504;2022-11-12T17:17:01;12.29;76.49
71177;DHT22;58877;51.992;4.504;2022-11-12T17:19:27;12.20;76.76
71177;DHT22;58877;51.992;4.504;2022-11-12T17:21:52;12.16;76.92
71177;DHT22;58877;51.992;4.504;2022-11-12T17:24:18;12.10;77.06
71177;DHT22;58877;51.992;4.504;2022-11-12T17:26:44;12.06;77.24
71177;DHT22;58877;51.992;4.504;2022-11-12T17:29:10;11.99;77.42
71177;DHT22;58877;51.992;4.504;2022-11-12T17:31:36;11.93;77.33
71177;DHT22;58877;51.992;4.504;2022-11-12T17:34:04;11.93;78.09
71177;DHT22;58877;51.992;4.504;2022-11-12T17:36:30;11.99;78.13
71177;DHT22;58877;51.992;4.504;2022-11-12T17:38:58;12.00;78.10
71177;DHT22;58877;51.992;4.504;2022-11-12T17:41:25;11.90;78.14
71177;DHT22;58877;51.992;4.504;2022-11-12T17:43:59;11.77;78.09
71177;DHT22;58877;51.992;4.504;2022-11-12T17:46:26;11.69;78.15
71177;DHT22;58877;51.992;4.504;2022-11-12T17:48:53;11.70;78.26
71177;DHT22;58877;51.992;4.504;2022-11-12T17:51:22;11.66;78.38
71177;DHT22;58877;51.992;4.504;2022-11-12T17:53:48;11.55;78.50